sensor_id;sensor_type;location;lat;lon;timestamp;temperature;humidity
26821;DHT22;37186;51.394;5.454;2023-03-04T00:01:21;8.70;69.20
26821;DHT22;37186;51.394;5.454;2023-03-04T00:04:22;8.70;69.30
26821;DHT22;37186;51.394;5.454;2023-03-04T00:07:22;8.80;69.30
26821;DHT22;37186;51.394;5.454;2023-03-04T00:10:23;8.70;69.20
26821;DHT22;37186;51.394;5.454;2023-03-04T00:13:23;8.80;69.40
26821;DHT22;37186;51.394;5.454;2023-03-04T00:16:24;8.80;69.30
26821;DHT22;37186;51.394;5.454;2023-03-04T00:19:27;8.80;69.30
26821;DHT22;37186;51.394;5.454;2023-03-04T00:22:28;8.80;69.30
26821;DHT22;37186;51.394;5.454;2023-03-04T00:25:28;8.80;69.30
26821;DHT22;37186;51.394;5.454;2023-03-04T00:28:29;8.80;69.30
26821;DHT22;37186;51.394;5.454;2023-03-04T00:31:30;8.70;69.30
26821;DHT22;37186;51.394;5.454;2023-03-04T00:34:30;8.80;69.30
26821;DHT22;37186;51.394;5.454;2023-03-04T00:37:31;8.80;69.40
26821;DHT22;37186;51.394;5.454;2023-03-04T00:40:32;8.70;69.30
26821;DHT22;37186;51.394;5.454;2023-03-04T00:43:32;8.70;69.30
26821;DHT22;37186;51.394;5.454;2023-03-04T00:46:33;8.70;69.30
26821;DHT22;37186;51.394;5.454;2023-03-04T00:49:33;8.80;69.30
26821;DHT22;37186;51.394;5.454;2023-03-04T00:52:34;8.70;69.30
26821;DHT22;37186;51.394;5.454;2023-03-04T00:55:34;8.70;69.30
26821;DHT22;37186;51.394;5.454;2023-03-04T00:58:35;8.70;69.30
26821;DHT22;37186;51.394;5.454;2023-03-04T01:01:35;8.70;69.40
26821;DHT22;37186;51.394;5.454;2023-03-04T01:04:36;8.70;69.30
26821;DHT22;37186;51.394;5.454;2023-03-04T01:07:37;8.70;69.40
26821;DHT22;37186;51.394;5.454;2023-03-04T01:10:38;8.70;69.30
26821;DHT22;37186;51.394;5.454;2023-03-04T01:13:38;8.70;69.30
26821;DHT22;37186;51.394;5.454;2023-03-04T01:16:39;8.70;69.40
26821;DHT22;37186;51.394;5.454;2023-03-04T01:19:40;8.70;69.40
26821;DHT22;37186;51.394;5.454;2023-03-04T01:22:40;8.70;69.30
26821;DHT22;37186;51.394;5.454;2023-03-04T01:25:41;8.70;69.30
26821;DHT22;37186;51.394;5.454;2023-03-04T01:28:41;8.70;69.40
26821;DHT22;37186;51.394;5.454;2023-03-04T01:31:42;8.70;69.40
26821;DHT22;37186;51.394;5.454;2023-03-04T01:34:42;8.70;69.40
26821;DHT22;37186;51.394;5.454;2023-03-04T01:37:43;8.70;69.40
26821;DHT22;37186;51.394;5.454;2023-03-04T01:40:44;8.70;69.40
26821;DHT22;37186;51.394;5.454;2023-03-04T01:43:44;8.70;69.40
26821;DHT22;37186;51.394;5.454;2023-03-04T01:46:48;8.70;69.40
26821;DHT22;37186;51.394;5.454;2023-03-04T01:49:53;8.60;69.40
26821;DHT22;37186;51.394;5.454;2023-03-04T01:52:54;8.70;69.50
26821;DHT22;37186;51.394;5.454;2023-03-04T01:56:04;8.60;69.40
26821;DHT22;37186;51.394;5.454;2023-03-04T01:59:21;8.70;69.50
26821;DHT22;37186;51.394;5.454;2023-03-04T02:02:22;8.70;69.50
26821;DHT22;37186;51.394;5.454;2023-03-04T02:05:23;8.70;69.50
26821;DHT22;37186;51.394;5.454;2023-03-04T02:08:24;8.70;69.40
26821;DHT22;37186;51.394;5.454;2023-03-04T02:11:24;8.70;69.40
26821;DHT22;37186;51.394;5.454;2023-03-04T02:14:25;8.70;69.40
26821;DHT22;37186;51.394;5.454;2023-03-04T02:17:27;8.70;69.40
26821;DHT22;37186;51.394;5.454;2023-03-04T02:20:55;8.60;69.40
26821;DHT22;37186;51.394;5.454;2023-03-04T02:24:09;8.60;69.50
26821;DHT22;37186;51.394;5.454;2023-03-04T02:27:14;8.60;69.30
26821;DHT22;37186;51.394;5.454;2023-03-04T02:30:18;8.60;69.40
26821;DHT22;37186;51.394;5.454;2023-03-04T02:33:19;8.60;69.40
26821;DHT22;37186;51.394;5.454;2023-03-04T02:36:19;8.60;69.40
26821;DHT22;37186;51.394;5.454;2023-03-04T02:42:21;8.60;69.50
26821;DHT22;37186;51.394;5.454;2023-03-04T02:45:46;8.60;69.50
26821;DHT22;37186;51.394;5.454;2023-03-04T02:48:48;8.50;69.40
26821;DHT22;37186;51.394;5.454;2023-03-04T02:52:01;8.60;69.50
26821;DHT22;37186;51.394;5.454;2023-03-04T02:55:01;8.60;69.60
26821;DHT22;37186;51.394;5.454;2023-03-04T02:58:02;8.60;69.60
26821;DHT22;37186;51.394;5.454;2023-03-04T03:01:04;8.50;69.50
26821;DHT22;37186;51.394;5.454;2023-03-04T03:04:05;8.50;69.50
26821;DHT22;37186;51.394;5.454;2023-03-04T03:07:06;8.50;69.50
26821;DHT22;37186;51.394;5.454;2023-03-04T03:10:07;8.50;69.60
26821;DHT22;37186;51.394;5.454;2023-03-04T03:13:07;8.50;69.50
26821;DHT22;37186;51.394;5.454;2023-03-04T03:16:08;8.50;69.50
26821;DHT22;37186;51.394;5.454;2023-03-04T03:19:08;8.50;69.50
26821;DHT22;37186;51.394;5.454;2023-03-04T03:22:09;8.50;69.50
26821;DHT22;37186;51.394;5.454;2023-03-04T03:25:11;8.50;69.60
26821;DHT22;37186;51.394;5.454;2023-03-04T03:28:12;8.50;69.50
26821;DHT22;37186;51.394;5.454;2023-03-04T03:31:13;8.50;69.50
26821;DHT22;37186;51.394;5.454;2023-03-04T03:34:13;8.50;69.50
26821;DHT22;37186;51.394;5.454;2023-03-04T03:37:14;8.50;69.50
26821;DHT22;37186;51.394;5.454;2023-03-04T03:40:15;8.50;69.50
26821;DHT22;37186;51.394;5.454;2023-03-04T03:43:16;8.50;69.60
26821;DHT22;37186;51.394;5.454;2023-03-04T03:46:16;8.50;69.60
26821;DHT22;37186;51.394;5.454;2023-03-04T03:49:17;8.50;69.60
26821;DHT22;37186;51.394;5.454;2023-03-04T03:52:17;8.50;69.50
26821;DHT22;37186;51.394;5.454;2023-03-04T03:55:18;8.40;69.40
26821;DHT22;37186;51.394;5.454;2023-03-04T03:58:18;8.40;69.50
26821;DHT22;37186;51.394;5.454;2023-03-04T04:01:19;8.40;69.60
26821;DHT22;37186;51.394;5.454;2023-03-04T04:04:19;8.40;69.50
26821;DHT22;37186;51.394;5.454;2023-03-04T04:07:20;8.40;69.50
26821;DHT22;37186;51.394;5.454;2023-03-04T04:10:20;8.40;69.60
26821;DHT22;37186;51.394;5.454;2023-03-04T04:13:21;8.40;69.60
26821;DHT22;37186;51.394;5.454;2023-03-04T04:16:21;8.40;69.60
26821;DHT22;37186;51.394;5.454;2023-03-04T04:19:22;8.40;69.60
26821;DHT22;37186;51.394;5.454;2023-03-04T04:22:23;8.40;69.60
26821;DHT22;37186;51.394;5.454;2023-03-04T04:25:23;8.40;69.70
26821;DHT22;37186;51.394;5.454;2023-03-04T04:28:24;8.40;69.60
26821;DHT22;37186;51.394;5.454;2023-03-04T04:31:24;8.40;69.70
26821;DHT22;37186;51.394;5.454;2023-03-04T04:34:25;8.40;69.70
26821;DHT22;37186;51.394;5.454;2023-03-04T04:37:25;8.40;69.70
26821;DHT22;37186;51.394;5.454;2023-03-04T04:40:26;8.40;69.70
26821;DHT22;37186;51.394;5.454;2023-03-04T04:43:27;8.40;69.80
26821;DHT22;37186;51.394;5.454;2023-03-04T04:46:27;8.40;69.80
26821;DHT22;37186;51.394;5.454;2023-03-04T04:49:29;8.40;69.70
26821;DHT22;37186;51.394;5.454;2023-03-04T04:52:29;8.40;69.70
26821;DHT22;37186;51.394;5.454;2023-03-04T04:55:30;8.40;69.70
26821;DHT22;37186;51.394;5.454;2023-03-04T04:58:30;8.40;69.80
26821;DHT22;37186;51.394;5.454;2023-03-04T05:01:31;8.40;69.80
26821;DHT22;37186;51.394;5.454;2023-03-04T05:04:32;8.40;69.70
26821;DHT22;37186;51.394;5.454;2023-03-04T05:07:33;8.40;69.80
26821;DHT22;37186;51.394;5.454;2023-03-04T05:10:33;8.40;69.80
26821;DHT22;37186;51.394;5.454;2023-03-04T05:13:34;8.40;69.80
26821;DHT22;37186;51.394;5.454;2023-03-04T05:16:35;8.40;69.70
26821;DHT22;37186;51.394;5.454;2023-03-04T05:19:35;8.40;69.80
26821;DHT22;37186;51.394;5.454;2023-03-04T05:22:36;8.40;69.70
26821;DHT22;37186;51.394;5.454;2023-03-04T05:25:36;8.40;69.70
26821;DHT22;37186;51.394;5.454;2023-03-04T05:28:37;8.40;69.70
26821;DHT22;37186;51.394;5.454;2023-03-04T05:31:38;8.40;69.70
26821;DHT22;37186;51.394;5.454;2023-03-04T05:34:38;8.40;69.70
26821;DHT22;37186;51.394;5.454;2023-03-04T05:37:39;8.40;69.70
26821;DHT22;37186;51.394;5.454;2023-03-04T05:40:40;8.40;69.70
26821;DHT22;37186;51.394;5.454;2023-03-04T05:43:41;8.40;69.70
26821;DHT22;37186;51.394;5.454;2023-03-04T05:46:42;8.40;69.70
26821;DHT22;37186;51.394;5.454;2023-03-04T05:49:42;8.40;69.80
26821;DHT22;37186;51.394;5.454;2023-03-04T05:52:43;8.40;69.70
26821;DHT22;37186;51.394;5.454;2023-03-04T05:55:47;8.40;69.80
26821;DHT22;37186;51.394;5.454;2023-03-04T05:58:48;8.40;69.80
26821;DHT22;37186;51.394;5.454;2023-03-04T06:01:49;8.40;69.70
26821;DHT22;37186;51.394;5.454;2023-03-04T06:04:49;8.40;69.80
26821;DHT22;37186;51.394;5.454;2023-03-04T06:07:50;8.40;69.80
26821;DHT22;37186;51.394;5.454;2023-03-04T06:10:55;8.30;69.60
26821;DHT22;37186;51.394;5.454;2023-03-04T06:13:56;8.40;69.70
26821;DHT22;37186;51.394;5.454;2023-03-04T06:16:56;8.30;69.70
26821;DHT22;37186;51.394;5.454;2023-03-04T06:19:57;8.30;69.70
26821;DHT22;37186;51.394;5.454;2023-03-04T06:22:57;8.30;69.70
26821;DHT22;37186;51.394;5.454;2023-03-04T06:25:59;8.30;69.80
26821;DHT22;37186;51.394;5.454;2023-03-04T06:29:00;8.30;69.80
26821;DHT22;37186;51.394;5.454;2023-03-04T06:32:00;8.30;69.80
26821;DHT22;37186;51.394;5.454;2023-03-04T06:35:01;8.30;69.80
26821;DHT22;37186;51.394;5.454;2023-03-04T06:38:01;8.30;69.80
26821;DHT22;37186;51.394;5.454;2023-03-04T06:41:07;8.30;69.90
26821;DHT22;37186;51.394;5.454;2023-03-04T06:44:08;8.30;69.80
26821;DHT22;37186;51.394;5.454;2023-03-04T06:47:08;8.30;69.70
26821;DHT22;37186;51.394;5.454;2023-03-04T06:50:10;8.30;70.60
26821;DHT22;37186;51.394;5.454;2023-03-04T06:53:11;8.30;69.80
26821;DHT22;37186;51.394;5.454;2023-03-04T06:56:13;8.30;69.80
26821;DHT22;37186;51.394;5.454;2023-03-04T06:59:17;8.30;69.80
26821;DHT22;37186;51.394;5.454;2023-03-04T07:02:17;8.30;69.90
26821;DHT22;37186;51.394;5.454;2023-03-04T07:05:18;8.30;70.00
26821;DHT22;37186;51.394;5.454;2023-03-04T07:08:18;8.30;69.80
26821;DHT22;37186;51.394;5.454;2023-03-04T07:11:19;8.30;69.80
26821;DHT22;37186;51.394;5.454;2023-03-04T07:14:21;8.30;70.70
26821;DHT22;37186;51.394;5.454;2023-03-04T07:17:21;8.30;69.90
26821;DHT22;37186;51.394;5.454;2023-03-04T07:20:22;8.30;70.00
26821;DHT22;37186;51.394;5.454;2023-03-04T07:23:22;8.30;69.90
26821;DHT22;37186;51.394;5.454;2023-03-04T07:26:23;8.30;70.30
26821;DHT22;37186;51.394;5.454;2023-03-04T07:29:24;8.30;70.00
26821;DHT22;37186;51.394;5.454;2023-03-04T07:32:24;8.30;70.00
26821;DHT22;37186;51.394;5.454;2023-03-04T07:35:25;8.30;70.10
26821;DHT22;37186;51.394;5.454;2023-03-04T07:38:25;8.30;70.20
26821;DHT22;37186;51.394;5.454;2023-03-04T07:41:27;8.30;70.10
26821;DHT22;37186;51.394;5.454;2023-03-04T07:44:28;8.30;70.10
26821;DHT22;37186;51.394;5.454;2023-03-04T07:47:28;8.30;70.10
26821;DHT22;37186;51.394;5.454;2023-03-04T07:50:29;8.30;70.20
26821;DHT22;37186;51.394;5.454;2023-03-04T07:53:30;8.30;70.30
26821;DHT22;37186;51.394;5.454;2023-03-04T07:56:32;8.30;70.20
26821;DHT22;37186;51.394;5.454;2023-03-04T07:59:33;8.30;70.30
26821;DHT22;37186;51.394;5.454;2023-03-04T08:02:34;8.40;70.40
26821;DHT22;37186;51.394;5.454;2023-03-04T08:05:34;8.40;70.50
26821;DHT22;37186;51.394;5.454;2023-03-04T08:08:35;8.30;70.30
26821;DHT22;37186;51.394;5.454;2023-03-04T08:11:37;8.40;70.50
26821;DHT22;37186;51.394;5.454;2023-03-04T08:14:37;8.30;70.30
26821;DHT22;37186;51.394;5.454;2023-03-04T08:17:38;8.40;70.40
26821;DHT22;37186;51.394;5.454;2023-03-04T08:20:41;8.40;70.70
26821;DHT22;37186;51.394;5.454;2023-03-04T08:23:42;8.30;70.60
26821;DHT22;37186;51.394;5.454;2023-03-04T08:26:45;8.40;70.70
26821;DHT22;37186;51.394;5.454;2023-03-04T08:29:46;8.40;70.60
26821;DHT22;37186;51.394;5.454;2023-03-04T08:32:47;8.30;70.60
26821;DHT22;37186;51.394;5.454;2023-03-04T08:35:47;8.30;70.70
26821;DHT22;37186;51.394;5.454;2023-03-04T08:38:48;8.30;70.80
26821;DHT22;37186;51.394;5.454;2023-03-04T08:41:48;8.30;70.70
26821;DHT22;37186;51.394;5.454;2023-03-04T08:44:49;8.30;70.80
26821;DHT22;37186;51.394;5.454;2023-03-04T08:47:50;8.30;71.00
26821;DHT22;37186;51.394;5.454;2023-03-04T08:50:51;8.30;70.90
26821;DHT22;37186;51.394;5.454;2023-03-04T08:53:51;8.30;71.10
26821;DHT22;37186;51.394;5.454;2023-03-04T08:56:52;8.40;71.10
26821;DHT22;37186;51.394;5.454;2023-03-04T08:59:57;8.40;71.10
26821;DHT22;37186;51.394;5.454;2023-03-04T09:03:00;8.40;71.10
26821;DHT22;37186;51.394;5.454;2023-03-04T09:06:02;8.40;71.30
26821;DHT22;37186;51.394;5.454;2023-03-04T09:09:03;8.40;71.30
26821;DHT22;37186;51.394;5.454;2023-03-04T09:12:04;8.50;72.30
26821;DHT22;37186;51.394;5.454;2023-03-04T09:15:05;8.50;71.40
26821;DHT22;37186;51.394;5.454;2023-03-04T09:18:06;8.50;71.50
26821;DHT22;37186;51.394;5.454;2023-03-04T09:21:07;8.50;71.30
26821;DHT22;37186;51.394;5.454;2023-03-04T09:24:08;8.50;71.40
26821;DHT22;37186;51.394;5.454;2023-03-04T09:27:08;8.60;71.50
26821;DHT22;37186;51.394;5.454;2023-03-04T09:30:09;8.60;71.70
26821;DHT22;37186;51.394;5.454;2023-03-04T09:33:10;8.60;71.70
26821;DHT22;37186;51.394;5.454;2023-03-04T09:36:13;8.70;71.70
26821;DHT22;37186;51.394;5.454;2023-03-04T09:39:14;8.70;71.80
26821;DHT22;37186;51.394;5.454;2023-03-04T09:42:29;8.70;71.70
26821;DHT22;37186;51.394;5.454;2023-03-04T09:45:54;8.80;71.80
26821;DHT22;37186;51.394;5.454;2023-03-04T09:48:56;8.80;71.70
26821;DHT22;37186;51.394;5.454;2023-03-04T09:55:30;8.90;71.80
26821;DHT22;37186;51.394;5.454;2023-03-04T09:58:46;8.90;71.80
26821;DHT22;37186;51.394;5.454;2023-03-04T10:01:57;8.90;71.80
26821;DHT22;37186;51.394;5.454;2023-03-04T10:05:01;9.00;71.90
26821;DHT22;37186;51.394;5.454;2023-03-04T10:11:44;9.00;71.90
26821;DHT22;37186;51.394;5.454;2023-03-04T10:14:56;9.10;71.90
26821;DHT22;37186;51.394;5.454;2023-03-04T10:18:18;9.10;72.00
26821;DHT22;37186;51.394;5.454;2023-03-04T10:21:38;9.10;72.00
26821;DHT22;37186;51.394;5.454;2023-03-04T10:24:41;9.20;72.00
26821;DHT22;37186;51.394;5.454;2023-03-04T10:27:43;9.20;72.00
26821;DHT22;37186;51.394;5.454;2023-03-04T10:31:11;9.20;71.80
26821;DHT22;37186;51.394;5.454;2023-03-04T10:34:17;9.20;71.80
26821;DHT22;37186;51.394;5.454;2023-03-04T10:37:17;9.20;71.80
26821;DHT22;37186;51.394;5.454;2023-03-04T10:40:23;9.30;71.80
26821;DHT22;37186;51.394;5.454;2023-03-04T10:43:25;9.30;71.80
26821;DHT22;37186;51.394;5.454;2023-03-04T10:46:26;9.30;71.80
26821;DHT22;37186;51.394;5.454;2023-03-04T10:49:29;9.30;71.70
26821;DHT22;37186;51.394;5.454;2023-03-04T10:52:45;9.40;71.80
26821;DHT22;37186;51.394;5.454;2023-03-04T10:55:46;9.40;71.80
26821;DHT22;37186;51.394;5.454;2023-03-04T10:58:47;9.40;72.00
26821;DHT22;37186;51.394;5.454;2023-03-04T11:01:49;9.40;71.90
26821;DHT22;37186;51.394;5.454;2023-03-04T11:08:16;9.50;71.90
26821;DHT22;37186;51.394;5.454;2023-03-04T11:14:33;9.50;71.70
26821;DHT22;37186;51.394;5.454;2023-03-04T11:17:50;9.50;71.70
26821;DHT22;37186;51.394;5.454;2023-03-04T11:20:53;9.50;71.60
26821;DHT22;37186;51.394;5.454;2023-03-04T11:24:03;9.50;71.70
26821;DHT22;37186;51.394;5.454;2023-03-04T11:30:17;9.60;71.60
26821;DHT22;37186;51.394;5.454;2023-03-04T11:43:03;9.60;71.60
26821;DHT22;37186;51.394;5.454;2023-03-04T11:53:03;9.60;71.80
26821;DHT22;37186;51.394;5.454;2023-03-04T11:56:29;9.60;71.80
26821;DHT22;37186;51.394;5.454;2023-03-04T12:06:53;9.60;72.00
26821;DHT22;37186;51.394;5.454;2023-03-04T12:19:52;9.60;72.10
26821;DHT22;37186;51.394;5.454;2023-03-04T12:23:08;9.60;72.30
26821;DHT22;37186;51.394;5.454;2023-03-04T12:32:53;9.60;72.30
26821;DHT22;37186;51.394;5.454;2023-03-04T12:39:55;9.60;72.20
26821;DHT22;37186;51.394;5.454;2023-03-04T12:42:47;9.70;72.30
26821;DHT22;37186;51.394;5.454;2023-03-04T12:46:20;9.70;72.60
26821;DHT22;37186;51.394;5.454;2023-03-04T13:03:21;9.80;73.10
26821;DHT22;37186;51.394;5.454;2023-03-04T13:09:28;9.90;73.00
26821;DHT22;37186;51.394;5.454;2023-03-04T13:12:51;9.90;72.90
26821;DHT22;37186;51.394;5.454;2023-03-04T13:16:02;9.90;73.00
26821;DHT22;37186;51.394;5.454;2023-03-04T13:32:37;10.00;72.90
26821;DHT22;37186;51.394;5.454;2023-03-04T13:35:48;10.00;73.00
26821;DHT22;37186;51.394;5.454;2023-03-04T13:39:30;10.00;72.90
26821;DHT22;37186;51.394;5.454;2023-03-04T13:42:40;10.00;72.90
26821;DHT22;37186;51.394;5.454;2023-03-04T13:45:41;10.00;72.90
26821;DHT22;37186;51.394;5.454;2023-03-04T13:48:55;10.00;72.80
26821;DHT22;37186;51.394;5.454;2023-03-04T13:58:33;10.00;73.00
26821;DHT22;37186;51.394;5.454;2023-03-04T14:01:47;10.00;73.00
26821;DHT22;37186;51.394;5.454;2023-03-04T14:07:54;10.00;72.80
26821;DHT22;37186;51.394;5.454;2023-03-04T14:10:55;10.00;72.80
26821;DHT22;37186;51.394;5.454;2023-03-04T14:13:57;10.00;72.80
26821;DHT22;37186;51.394;5.454;2023-03-04T14:17:01;10.00;72.80
26821;DHT22;37186;51.394;5.454;2023-03-04T14:20:06;10.00;72.80
26821;DHT22;37186;51.394;5.454;2023-03-04T14:23:28;10.00;72.80
26821;DHT22;37186;51.394;5.454;2023-03-04T14:26:29;10.00;72.80
26821;DHT22;37186;51.394;5.454;2023-03-04T14:29:30;10.10;72.90
26821;DHT22;37186;51.394;5.454;2023-03-04T14:32:31;10.10;72.80
26821;DHT22;37186;51.394;5.454;2023-03-04T14:35:32;10.10;72.80
26821;DHT22;37186;51.394;5.454;2023-03-04T14:38:37;10.10;73.20
26821;DHT22;37186;51.394;5.454;2023-03-04T14:41:41;10.10;72.90
26821;DHT22;37186;51.394;5.454;2023-03-04T14:44:46;10.10;72.90
26821;DHT22;37186;51.394;5.454;2023-03-04T14:47:48;10.10;72.80
26821;DHT22;37186;51.394;5.454;2023-03-04T14:50:50;10.10;72.80
26821;DHT22;37186;51.394;5.454;2023-03-04T14:53:54;10.10;72.80
26821;DHT22;37186;51.394;5.454;2023-03-04T14:56:55;10.10;72.90
26821;DHT22;37186;51.394;5.454;2023-03-04T15:03:24;10.10;73.00
26821;DHT22;37186;51.394;5.454;2023-03-04T15:06:30;10.20;73.00
26821;DHT22;37186;51.394;5.454;2023-03-04T15:09:31;10.20;73.30
26821;DHT22;37186;51.394;5.454;2023-03-04T15:12:35;10.20;73.40
26821;DHT22;37186;51.394;5.454;2023-03-04T15:15:43;10.20;73.70
26821;DHT22;37186;51.394;5.454;2023-03-04T15:18:58;10.20;73.30
26821;DHT22;37186;51.394;5.454;2023-03-04T15:22:05;10.20;73.10
26821;DHT22;37186;51.394;5.454;2023-03-04T15:25:05;10.20;73.10
26821;DHT22;37186;51.394;5.454;2023-03-04T15:28:14;10.20;73.30
26821;DHT22;37186;51.394;5.454;2023-03-04T15:31:18;10.20;73.20
26821;DHT22;37186;51.394;5.454;2023-03-04T15:34:19;10.20;73.20
26821;DHT22;37186;51.394;5.454;2023-03-04T15:37:26;10.30;73.20
26821;DHT22;37186;51.394;5.454;2023-03-04T15:43:31;10.30;73.40
26821;DHT22;37186;51.394;5.454;2023-03-04T15:46:32;10.20;73.20
26821;DHT22;37186;51.394;5.454;2023-03-04T15:49:33;10.30;73.20
26821;DHT22;37186;51.394;5.454;2023-03-04T15:52:34;10.30;73.10
26821;DHT22;37186;51.394;5.454;2023-03-04T15:55:37;10.30;73.20
26821;DHT22;37186;51.394;5.454;2023-03-04T15:58:38;10.30;73.10
26821;DHT22;37186;51.394;5.454;2023-03-04T16:01:39;10.30;73.00
26821;DHT22;37186;51.394;5.454;2023-03-04T16:04:39;10.30;73.20
26821;DHT22;37186;51.394;5.454;2023-03-04T16:07:42;10.30;73.20
26821;DHT22;37186;51.394;5.454;2023-03-04T16:10:44;10.30;73.10
26821;DHT22;37186;51.394;5.454;2023-03-04T16:13:44;10.30;73.20
26821;DHT22;37186;51.394;5.454;2023-03-04T16:16:45;10.30;73.00
26821;DHT22;37186;51.394;5.454;2023-03-04T16:19:46;10.30;73.20
26821;DHT22;37186;51.394;5.454;2023-03-04T16:22:50;10.30;73.10
26821;DHT22;37186;51.394;5.454;2023-03-04T16:25:54;10.20;73.80
26821;DHT22;37186;51.394;5.454;2023-03-04T16:28:55;10.30;73.10
26821;DHT22;37186;51.394;5.454;2023-03-04T16:31:55;10.20;72.90
26821;DHT22;37186;51.394;5.454;2023-03-04T16:34:56;10.20;72.90
26821;DHT22;37186;51.394;5.454;2023-03-04T16:37:56;10.20;72.80
26821;DHT22;37186;51.394;5.454;2023-03-04T16:40:58;10.20;72.90
26821;DHT22;37186;51.394;5.454;2023-03-04T16:44:01;10.20;72.80
26821;DHT22;37186;51.394;5.454;2023-03-04T16:47:02;10.10;72.70
26821;DHT22;37186;51.394;5.454;2023-03-04T16:50:04;10.20;72.80
26821;DHT22;37186;51.394;5.454;2023-03-04T16:53:20;10.10;72.60
26821;DHT22;37186;51.394;5.454;2023-03-04T16:56:23;10.10;72.70
26821;DHT22;37186;51.394;5.454;2023-03-04T16:59:23;10.10;72.70
26821;DHT22;37186;51.394;5.454;2023-03-04T17:02:24;10.10;72.70
26821;DHT22;37186;51.394;5.454;2023-03-04T17:05:29;10.00;72.70
26821;DHT22;37186;51.394;5.454;2023-03-04T17:08:30;10.00;72.60
26821;DHT22;37186;51.394;5.454;2023-03-04T17:11:31;10.00;72.50
26821;DHT22;37186;51.394;5.454;2023-03-04T17:14:31;10.00;72.50
26821;DHT22;37186;51.394;5.454;2023-03-04T17:17:32;10.00;72.60
26821;DHT22;37186;51.394;5.454;2023-03-04T17:20:33;10.00;72.40
26821;DHT22;37186;51.394;5.454;2023-03-04T17:23:34;10.00;72.50
26821;DHT22;37186;51.394;5.454;2023-03-04T17:26:34;9.90;72.40
26821;DHT22;37186;51.394;5.454;2023-03-04T17:29:35;9.90;72.50
26821;DHT22;37186;51.394;5.454;2023-03-04T17:32:35;9.90;72.40
26821;DHT22;37186;51.394;5.454;2023-03-04T17:35:37;9.90;72.50
26821;DHT22;37186;51.394;5.454;2023-03-04T17:38:38;9.90;72.40
26821;DHT22;37186;51.394;5.454;2023-03-04T17:41:39;9.90;72.40
26821;DHT22;37186;51.394;5.454;2023-03-04T17:44:39;9.90;72.40
26821;DHT22;37186;51.394;5.454;2023-03-04T17:47:40;9.90;72.40
26821;DHT22;37186;51.394;5.454;2023-03-04T17:50:50;9.90;72.50
26821;DHT22;37186;51.394;5.454;2023-03-04T17:53:51;9.80;72.20
26821;DHT22;37186;51.394;5.454;2023-03-04T17:56:52;9.80;72.40
26821;DHT22;37186;51.394;5.454;2023-03-04T17:59:52;9.80;72.40
26821;DHT22;37186;51.394;5.454;2023-03-04T18:02:53;9.80;72.40
26821;DHT22;37186;51.394;5.454;2023-03-04T18:05:54;9.80;72.50
26821;DHT22;37186;51.394;5.454;2023-03-04T18:08:54;9.70;72.20
26821;DHT22;37186;51.394;5.454;2023-03-04T18:11:55;9.70;72.10
26821;DHT22;37186;51.394;5.454;2023-03-04T18:14:55;9.70;72.30
26821;DHT22;37186;51.394;5.454;2023-03-04T18:17:56;9.70;72.20
26821;DHT22;37186;51.394;5.454;2023-03-04T18:20:57;9.70;72.30
26821;DHT22;37186;51.394;5.454;2023-03-04T18:23:58;9.70;72.30
26821;DHT22;37186;51.394;5.454;2023-03-04T18:26:59;9.70;72.30
26821;DHT22;37186;51.394;5.454;2023-03-04T18:29:59;9.70;72.10
26821;DHT22;37186;51.394;5.454;2023-03-04T18:33:00;9.70;72.10
26821;DHT22;37186;51.394;5.454;2023-03-04T18:36:06;9.60;72.10
26821;DHT22;37186;51.394;5.454;2023-03-04T18:39:08;9.60;72.30
26821;DHT22;37186;51.394;5.454;2023-03-04T18:42:08;9.60;72.10
26821;DHT22;37186;51.394;5.454;2023-03-04T18:45:11;9.60;72.10
26821;DHT22;37186;51.394;5.454;2023-03-04T18:48:12;9.60;72.20
26821;DHT22;37186;51.394;5.454;2023-03-04T18:51:12;9.60;72.10
26821;DHT22;37186;51.394;5.454;2023-03-04T18:54:13;9.60;72.20
26821;DHT22;37186;51.394;5.454;2023-03-04T18:57:14;9.50;72.10
26821;DHT22;37186;51.394;5.454;2023-03-04T19:00:18;9.50;72.10
26821;DHT22;37186;51.394;5.454;2023-03-04T19:03:19;9.50;72.10
26821;DHT22;37186;51.394;5.454;2023-03-04T19:06:20;9.50;72.10
26821;DHT22;37186;51.394;5.454;2023-03-04T19:09:20;9.50;72.10
26821;DHT22;37186;51.394;5.454;2023-03-04T19:12:21;9.50;72.00
26821;DHT22;37186;51.394;5.454;2023-03-04T19:15:22;9.50;72.10
26821;DHT22;37186;51.394;5.454;2023-03-04T19:18:23;9.50;72.10
26821;DHT22;37186;51.394;5.454;2023-03-04T19:21:24;9.40;72.00
26821;DHT22;37186;51.394;5.454;2023-03-04T19:24:24;9.40;72.00
26821;DHT22;37186;51.394;5.454;2023-03-04T19:27:25;9.40;72.00
26821;DHT22;37186;51.394;5.454;2023-03-04T19:30:26;9.40;72.10
26821;DHT22;37186;51.394;5.454;2023-03-04T19:33:26;9.40;72.10
26821;DHT22;37186;51.394;5.454;2023-03-04T19:36:27;9.40;72.10
26821;DHT22;37186;51.394;5.454;2023-03-04T19:39:28;9.40;72.10
26821;DHT22;37186;51.394;5.454;2023-03-04T19:42:28;9.40;72.20
26821;DHT22;37186;51.394;5.454;2023-03-04T19:45:29;9.40;72.10
26821;DHT22;37186;51.394;5.454;2023-03-04T19:48:29;9.40;72.10
26821;DHT22;37186;51.394;5.454;2023-03-04T19:51:30;9.40;72.20
26821;DHT22;37186;51.394;5.454;2023-03-04T19:54:32;9.40;72.10
26821;DHT22;37186;51.394;5.454;2023-03-04T19:57:33;9.40;72.10
26821;DHT22;37186;51.394;5.454;2023-03-04T20:00:34;9.40;72.00
26821;DHT22;37186;51.394;5.454;2023-03-04T20:03:34;9.30;72.00
26821;DHT22;37186;51.394;5.454;2023-03-04T20:06:43;9.40;72.80
26821;DHT22;37186;51.394;5.454;2023-03-04T20:09:43;9.40;72.00
26821;DHT22;37186;51.394;5.454;2023-03-04T20:12:44;9.40;72.00
26821;DHT22;37186;51.394;5.454;2023-03-04T20:15:44;9.30;72.10
26821;DHT22;37186;51.394;5.454;2023-03-04T20:18:45;9.40;72.00
26821;DHT22;37186;51.394;5.454;2023-03-04T20:21:45;9.30;72.00
26821;DHT22;37186;51.394;5.454;2023-03-04T20:24:46;9.30;72.00
26821;DHT22;37186;51.394;5.454;2023-03-04T20:27:46;9.30;72.00
26821;DHT22;37186;51.394;5.454;2023-03-04T20:30:47;9.30;72.10
26821;DHT22;37186;51.394;5.454;2023-03-04T20:33:48;9.30;72.10
26821;DHT22;37186;51.394;5.454;2023-03-04T20:36:49;9.30;72.10
26821;DHT22;37186;51.394;5.454;2023-03-04T20:39:50;9.30;72.10
26821;DHT22;37186;51.394;5.454;2023-03-04T20:42:50;9.30;72.00
26821;DHT22;37186;51.394;5.454;2023-03-04T20:45:51;9.30;72.10
26821;DHT22;37186;51.394;5.454;2023-03-04T20:48:53;9.30;72.00
26821;DHT22;37186;51.394;5.454;2023-03-04T20:51:56;9.30;72.00
26821;DHT22;37186;51.394;5.454;2023-03-04T20:54:59;9.30;72.10
26821;DHT22;37186;51.394;5.454;2023-03-04T20:58:00;9.20;71.80
26821;DHT22;37186;51.394;5.454;2023-03-04T21:01:00;9.20;72.00
26821;DHT22;37186;51.394;5.454;2023-03-04T21:04:02;9.20;72.00
26821;DHT22;37186;51.394;5.454;2023-03-04T21:07:03;9.20;72.00
26821;DHT22;37186;51.394;5.454;2023-03-04T21:10:03;9.20;72.00
26821;DHT22;37186;51.394;5.454;2023-03-04T21:13:04;9.20;72.00
26821;DHT22;37186;51.394;5.454;2023-03-04T21:16:05;9.20;72.10
26821;DHT22;37186;51.394;5.454;2023-03-04T21:19:21;9.20;72.00